Time;durP1;ratioP1;P1;durP2;ratioP2;P2;SDS_P1;SDS_P2;PMS_P1;PMS_P2;Temp;Humidity;BMP_temperature;BMP_pressure;BME280_temperature;BME280_humidity;BME280_pressure;Samples;Min_cycle;Max_cycle;Signal;HPM_P1;HPM_P2
2022/07/26 00:00:19;;;;;;;40.95;39.53;;;26.20;53.20;;;;;;5006457;28;20235;-88
2022/07/26 00:02:45;;;;;;;41.55;40.25;;;26.20;53.20;;;;;;5001026;28;20193;-87
2022/07/26 00:05:11;;;;;;;41.67;40.17;;;26.10;53.80;;;;;;5006102;28;20198;-87
2022/07/26 00:07:37;;;;;;;42.03;40.67;;;26.20;53.70;;;;;;5019819;28;20248;-87
2022/07/26 00:10:04;;;;;;;41.13;39.72;;;26.20;53.50;;;;;;5023670;28;20190;-87
2022/07/26 00:12:31;;;;;;;41.08;39.67;;;26.10;53.40;;;;;;5002799;28;20221;-87
2022/07/26 00:14:57;;;;;;;41.67;40.03;;;25.90;54.00;;;;;;5024558;28;20189;-87
2022/07/26 00:17:22;;;;;;;44.88;43.30;;;25.80;54.50;;;;;;4990157;28;20214;-87
2022/07/26 00:19:48;;;;;;;45.80;44.10;;;25.70;55.20;;;;;;5021247;28;20194;-87
2022/07/26 00:24:58;;;;;;;46.78;45.28;;;25.60;55.40;;;;;;5031742;28;20380;-87
2022/07/26 00:27:24;;;;;;;49.22;47.63;;;25.50;55.60;;;;;;5015870;28;20225;-87
2022/07/26 00:29:49;;;;;;;49.38;47.70;;;25.50;56.00;;;;;;5012775;28;20185;-88
2022/07/26 00:32:15;;;;;;;49.60;47.90;;;25.50;56.10;;;;;;5011482;28;20189;-88
2022/07/26 00:34:41;;;;;;;52.33;50.63;;;25.40;56.90;;;;;;5013234;28;20619;-87
2022/07/26 00:37:06;;;;;;;52.25;50.47;;;25.40;57.20;;;;;;4988207;28;20289;-87
2022/07/26 00:39:32;;;;;;;52.67;50.97;;;25.30;57.40;;;;;;5009380;28;20640;-87
2022/07/26 00:41:58;;;;;;;52.72;50.97;;;25.20;57.80;;;;;;4977671;28;20186;-86
2022/07/26 00:44:23;;;;;;;51.15;49.45;;;25.20;58.00;;;;;;5015595;28;20181;-86
2022/07/26 00:46:49;;;;;;;51.40;49.70;;;25.10;57.90;;;;;;5003368;28;20304;-87
2022/07/26 00:49:15;;;;;;;48.72;47.03;;;25.00;58.70;;;;;;5013621;28;20192;-87
2022/07/26 00:51:41;;;;;;;49.67;48.08;;;25.00;58.70;;;;;;5010739;28;20208;-87
2022/07/26 00:54:06;;;;;;;48.83;47.22;;;25.00;58.40;;;;;;5007010;28;20197;-88
2022/07/26 00:56:34;;;;;;;50.05;48.35;;;24.90;59.10;;;;;;5017619;28;20275;-87
2022/07/26 00:59:00;;;;;;;46.00;44.42;;;24.90;58.60;;;;;;5003535;28;20256;-86
2022/07/26 01:01:26;;;;;;;46.88;45.38;;;24.90;59.00;;;;;;5011546;28;20213;-85
2022/07/26 01:03:52;;;;;;;45.53;44.03;;;24.90;59.20;;;;;;5013141;28;20190;-87
2022/07/26 01:06:19;;;;;;;45.08;43.28;;;24.70;59.40;;;;;;5016356;28;20205;-86
2022/07/26 01:08:45;;;;;;;43.53;42.03;;;24.60;60.50;;;;;;5015758;28;20200;-87
2022/07/26 01:11:11;;;;;;;41.88;40.50;;;24.70;59.50;;;;;;5010621;28;20185;-87
2022/07/26 01:13:36;;;;;;;40.38;39.08;;;24.70;59.60;;;;;;5008470;28;20218;-88
2022/07/26 01:16:03;;;;;;;41.17;39.88;;;24.70;59.50;;;;;;5007208;28;20345;-87
2022/07/26 01:18:28;;;;;;;41.63;40.22;;;24.80;59.70;;;;;;5011194;28;20240;-87
2022/07/26 01:20:56;;;;;;;40.60;39.30;;;24.80;59.50;;;;;;5002552;28;20186;-87
2022/07/26 01:23:22;;;;;;;41.47;40.08;;;24.80;60.10;;;;;;5017673;28;20190;-87
2022/07/26 01:25:48;;;;;;;40.95;39.45;;;24.70;60.70;;;;;;5012604;28;20213;-86
2022/07/26 01:28:13;;;;;;;41.50;40.05;;;24.60;60.20;;;;;;5016632;28;20204;-87
2022/07/26 01:30:39;;;;;;;41.50;40.10;;;24.50;61.60;;;;;;4996740;28;20263;-88
2022/07/26 01:33:05;;;;;;;42.60;41.10;;;24.50;62.90;;;;;;4997825;28;20197;-87
2022/07/26 01:35:30;;;;;;;39.83;38.53;;;24.50;64.30;;;;;;5009068;28;20182;-86
2022/07/26 01:37:56;;;;;;;40.80;39.38;;;24.40;62.80;;;;;;5013119;28;20213;-87
2022/07/26 01:40:22;;;;;;;40.30;38.95;;;24.20;63.80;;;;;;5023230;28;20205;-87
2022/07/26 01:42:47;;;;;;;40.25;38.85;;;24.20;63.70;;;;;;5017107;28;20212;-87
2022/07/26 01:45:13;;;;;;;40.83;39.33;;;24.10;63.90;;;;;;5022326;28;20206;-87
2022/07/26 01:47:39;;;;;;;42.20;40.70;;;24.10;64.30;;;;;;5014993;28;20265;-88
2022/07/26 01:50:06;;;;;;;43.58;42.03;;;24.00;64.40;;;;;;5009484;28;20190;-87
2022/07/26 01:52:34;;;;;;;43.45;41.97;;;24.10;64.70;;;;;;5016820;28;20206;-87
2022/07/26 01:55:00;;;;;;;42.67;41.28;;;24.20;64.30;;;;;;5013908;28;20192;-86
2022/07/26 01:57:26;;;;;;;38.75;37.40;;;24.10;65.00;;;;;;5025116;28;20206;-88
2022/07/26 01:59:51;;;;;;;35.75;34.45;;;24.00;65.20;;;;;;5023527;28;20189;-87
2022/07/26 02:02:17;;;;;;;33.33;31.85;;;23.90;65.90;;;;;;5020740;28;20220;-86
2022/07/26 02:04:58;;;;;;;30.83;29.70;;;23.70;66.20;;;;;;5000518;28;20269;-86
2022/07/26 02:07:31;;;;;;;28.48;27.38;;;23.70;66.70;;;;;;5025162;28;20220;-88
2022/07/26 02:09:57;;;;;;;28.52;27.52;;;23.80;66.70;;;;;;5007535;28;20337;-87
2022/07/26 02:12:23;;;;;;;29.33;28.33;;;23.70;66.60;;;;;;5013724;28;20228;-87
2022/07/26 02:14:49;;;;;;;28.58;27.67;;;23.70;66.60;;;;;;5002352;28;20186;-86
2022/07/26 02:17:15;;;;;;;30.00;28.90;;;23.80;66.10;;;;;;5011599;28;20263;-86
2022/07/26 02:19:41;;;;;;;28.55;27.50;;;23.80;66.00;;;;;;5017927;28;20185;-87
2022/07/26 02:22:07;;;;;;;28.48;27.25;;;23.70;66.70;;;;;;5015591;28;20201;-86
2022/07/26 02:24:33;;;;;;;28.27;27.33;;;23.70;66.50;;;;;;5016733;28;20206;-87
2022/07/26 02:27:00;;;;;;;30.77;29.48;;;23.60;67.00;;;;;;5017930;28;20214;-86
2022/07/26 02:29:26;;;;;;;35.42;34.13;;;23.60;67.20;;;;;;4994054;28;20233;-87
2022/07/26 02:31:53;;;;;;;41.42;40.08;;;23.40;67.30;;;;;;5011299;28;20201;-87
2022/07/26 02:34:19;;;;;;;33.67;32.40;;;23.40;67.80;;;;;;5012873;28;20438;-87
2022/07/26 02:36:45;;;;;;;31.23;30.02;;;23.50;67.40;;;;;;4973799;28;20217;-86
2022/07/26 02:39:11;;;;;;;34.40;33.20;;;23.50;67.00;;;;;;5019793;28;20464;-86
2022/07/26 02:41:38;;;;;;;30.67;29.48;;;23.50;67.20;;;;;;5017169;28;20206;-87
2022/07/26 02:44:04;;;;;;;31.65;30.55;;;23.60;66.80;;;;;;5001899;28;20205;-87
2022/07/26 02:46:30;;;;;;;31.50;30.40;;;23.50;66.80;;;;;;5012187;28;20243;-87
2022/07/26 02:48:58;;;;;;;31.40;30.38;;;23.50;67.00;;;;;;5022875;28;20185;-86
2022/07/26 02:51:24;;;;;;;34.45;33.13;;;23.50;67.10;;;;;;5019782;28;20179;-87
2022/07/26 02:53:50;;;;;;;34.85;33.75;;;23.50;67.50;;;;;;5026883;28;20680;-88
2022/07/26 02:56:15;;;;;;;38.97;37.67;;;23.40;67.30;;;;;;5011984;28;20202;-86
2022/07/26 02:58:41;;;;;;;41.50;40.08;;;23.30;68.00;;;;;;5001965;28;20190;-87
2022/07/26 03:01:07;;;;;;;40.88;39.45;;;23.30;68.20;;;;;;5017222;28;20623;-86
2022/07/26 03:03:33;;;;;;;42.97;41.53;;;23.20;68.50;;;;;;5014943;28;20226;-86
2022/07/26 03:05:58;;;;;;;43.33;41.83;;;23.20;68.30;;;;;;5022671;28;20217;-86
2022/07/26 03:08:24;;;;;;;45.70;44.10;;;23.30;68.30;;;;;;5023461;28;20217;-86
2022/07/26 03:10:50;;;;;;;48.10;46.45;;;23.20;69.40;;;;;;5000284;28;20233;-86
2022/07/26 03:13:15;;;;;;;44.58;43.13;;;23.10;68.90;;;;;;5019964;28;20178;-86
2022/07/26 03:15:41;;;;;;;42.38;40.97;;;23.20;68.50;;;;;;5003708;28;20201;-87
2022/07/26 03:18:07;;;;;;;41.33;39.83;;;23.20;68.20;;;;;;5010508;28;20210;-87
2022/07/26 03:20:33;;;;;;;40.35;38.72;;;23.30;68.70;;;;;;5017542;28;20190;-87
2022/07/26 03:22:58;;;;;;;41.67;40.28;;;23.20;68.40;;;;;;5017358;28;20265;-86
2022/07/26 03:25:24;;;;;;;42.00;40.63;;;23.20;68.90;;;;;;5003361;28;20276;-86
2022/07/26 03:27:52;;;;;;;45.92;44.45;;;23.10;69.20;;;;;;5017413;28;20221;-87
2022/07/26 03:30:18;;;;;;;44.30;42.80;;;22.90;69.90;;;;;;5012638;28;20182;-87
2022/07/26 03:32:44;;;;;;;46.15;44.55;;;22.90;69.80;;;;;;4998494;28;20216;-87
2022/07/26 03:35:10;;;;;;;46.53;44.65;;;22.90;69.80;;;;;;5024986;28;20216;-86
2022/07/26 03:37:35;;;;;;;44.67;43.17;;;23.00;69.60;;;;;;4998100;28;20218;-87
2022/07/26 03:40:01;;;;;;;46.45;44.85;;;23.10;69.40;;;;;;5021546;28;20192;-91
2022/07/26 03:42:27;;;;;;;43.28;41.78;;;23.00;69.70;;;;;;5020812;28;20189;-88
2022/07/26 03:44:53;;;;;;;44.50;43.00;;;23.00;69.20;;;;;;4992286;28;20210;-87
2022/07/26 03:47:18;;;;;;;42.97;41.22;;;23.10;68.70;;;;;;5005766;28;20716;-89
2022/07/26 03:49:44;;;;;;;42.63;41.13;;;23.00;69.00;;;;;;5005701;28;20221;-88
2022/07/26 03:52:10;;;;;;;42.58;41.03;;;23.00;69.30;;;;;;4999931;28;20222;-88
2022/07/26 03:54:35;;;;;;;43.97;42.38;;;23.00;69.50;;;;;;5008486;28;20206;-88
2022/07/26 03:57:01;;;;;;;44.97;43.38;;;22.90;69.90;;;;;;5022764;28;20220;-88
2022/07/26 03:59:27;;;;;;;43.85;42.35;;;22.90;70.60;;;;;;5007747;28;20211;-88
2022/07/26 04:01:53;;;;;;;44.83;43.35;;;22.80;69.90;;;;;;4991858;28;20189;-88
2022/07/26 04:04:18;;;;;;;47.28;45.33;;;22.80;70.40;;;;;;5012085;28;20197;-88
2022/07/26 04:06:46;;;;;;;43.85;42.25;;;22.70;71.60;;;;;;5021495;28;20218;-90
2022/07/26 04:09:13;;;;;;;44.67;43.22;;;22.70;70.90;;;;;;5028616;28;20180;-88
2022/07/26 04:11:39;;;;;;;43.60;41.97;;;22.60;71.40;;;;;;5015387;28;20199;-87
2022/07/26 04:14:05;;;;;;;41.05;39.65;;;22.50;72.10;;;;;;5023734;28;20669;-87
2022/07/26 04:16:31;;;;;;;46.45;44.85;;;22.40;72.40;;;;;;5021761;28;20217;-88
2022/07/26 04:18:57;;;;;;;42.80;41.20;;;22.40;72.50;;;;;;5010160;28;20213;-87
2022/07/26 04:21:23;;;;;;;41.55;40.15;;;22.30;72.70;;;;;;4994112;28;20182;-88
2022/07/26 04:23:49;;;;;;;43.30;41.80;;;22.40;72.10;;;;;;5013793;28;20186;-88
2022/07/26 04:26:15;;;;;;;47.25;45.65;;;22.40;72.10;;;;;;5018185;28;20219;-88
2022/07/26 04:28:41;;;;;;;42.58;40.88;;;22.30;72.70;;;;;;4995460;28;20245;-87
2022/07/26 04:31:07;;;;;;;48.65;46.95;;;22.20;72.70;;;;;;5006901;28;20189;-87
2022/07/26 04:33:33;;;;;;;56.00;54.00;;;22.10;73.40;;;;;;5023067;28;20173;-89
2022/07/26 04:35:59;;;;;;;63.33;61.05;;;22.10;73.90;;;;;;5018439;28;20383;-88
2022/07/26 04:38:25;;;;;;;53.42;51.60;;;22.00;73.90;;;;;;5008893;28;20672;-88
2022/07/26 04:40:52;;;;;;;57.55;55.55;;;22.00;73.60;;;;;;5010891;28;20219;-88
2022/07/26 04:43:18;;;;;;;68.43;66.13;;;22.00;73.80;;;;;;4995277;28;20186;-87
2022/07/26 04:45:44;;;;;;;72.82;70.53;;;21.90;74.00;;;;;;5009525;28;20263;-87
2022/07/26 04:48:10;;;;;;;76.25;73.85;;;21.90;74.50;;;;;;5010390;28;20312;-87
2022/07/26 04:50:36;;;;;;;77.97;75.35;;;21.90;74.60;;;;;;5012740;28;20192;-86
2022/07/26 04:53:02;;;;;;;85.60;82.90;;;21.90;74.70;;;;;;4988150;28;20225;-87
2022/07/26 04:55:28;;;;;;;86.40;83.65;;;21.80;75.60;;;;;;5005905;28;20252;-87
2022/07/26 04:57:53;;;;;;;90.07;87.07;;;21.70;76.10;;;;;;5003339;28;20624;-87
2022/07/26 05:00:23;;;;;;;90.38;87.55;;;21.70;76.20;;;;;;5005965;28;20188;-87
2022/07/26 05:02:50;;;;;;;88.40;85.60;;;21.60;76.90;;;;;;4988022;28;20196;-86
2022/07/26 05:05:16;;;;;;;93.28;90.28;;;21.60;76.80;;;;;;4984828;28;20227;-86
2022/07/26 05:07:51;;;;;;;88.13;85.03;;;21.50;76.60;;;;;;5006031;28;20205;-85
2022/07/26 05:10:18;;;;;;;72.45;69.97;;;21.40;77.50;;;;;;5005087;28;20198;-87
2022/07/26 05:12:46;;;;;;;67.10;64.85;;;21.10;78.80;;;;;;5007923;28;20214;-87
2022/07/26 05:15:14;;;;;;;72.50;70.10;;;21.10;79.40;;;;;;4997281;28;20209;-86
2022/07/26 05:17:41;;;;;;;80.65;78.15;;;21.00;79.00;;;;;;4992606;28;20207;-88
2022/07/26 05:20:09;;;;;;;91.00;88.03;;;21.10;78.20;;;;;;5001814;28;20189;-88
2022/07/26 05:22:35;;;;;;;97.18;94.05;;;21.20;77.80;;;;;;4988580;28;20736;-88
2022/07/26 05:25:02;;;;;;;94.63;91.65;;;21.30;76.60;;;;;;5012300;28;20202;-88
2022/07/26 05:27:28;;;;;;;94.63;91.63;;;21.20;76.60;;;;;;4988190;28;20693;-88
2022/07/26 05:29:54;;;;;;;93.35;90.22;;;21.20;76.40;;;;;;5006257;28;20208;-87
2022/07/26 05:32:21;;;;;;;90.05;87.15;;;21.20;76.10;;;;;;5003347;28;20455;-87
2022/07/26 05:34:47;;;;;;;103.40;99.97;;;21.10;76.20;;;;;;5014186;28;20186;-87
2022/07/26 05:37:13;;;;;;;103.65;100.35;;;21.20;76.00;;;;;;5010685;28;20213;-87
2022/07/26 05:39:39;;;;;;;96.90;93.90;;;21.20;75.60;;;;;;5007246;28;20642;-87
2022/07/26 05:42:05;;;;;;;94.78;91.85;;;21.20;75.60;;;;;;5011103;28;20230;-87
2022/07/26 05:44:31;;;;;;;95.97;92.97;;;21.30;74.70;;;;;;5008113;28;20659;-88
2022/07/26 05:46:56;;;;;;;99.40;96.20;;;21.40;74.70;;;;;;5013817;28;20208;-88
2022/07/26 05:49:22;;;;;;;107.88;104.15;;;21.50;73.60;;;;;;5012651;28;20184;-88
2022/07/26 05:51:48;;;;;;;106.75;103.22;;;21.70;72.30;;;;;;5011339;28;20260;-88
2022/07/26 05:54:13;;;;;;;108.82;105.43;;;21.60;71.80;;;;;;4987198;28;20250;-87
2022/07/26 05:56:39;;;;;;;111.05;107.65;;;21.50;71.20;;;;;;5017385;28;20692;-87
2022/07/26 05:59:05;;;;;;;104.93;101.65;;;21.50;71.40;;;;;;5015306;28;20222;-87
2022/07/26 06:01:31;;;;;;;109.50;106.00;;;21.50;71.10;;;;;;5012595;28;20191;-86
2022/07/26 06:03:58;;;;;;;106.63;103.20;;;21.30;71.30;;;;;;5017955;28;20168;-88
2022/07/26 06:06:24;;;;;;;107.07;103.82;;;21.30;71.20;;;;;;5015182;28;20222;-88
2022/07/26 06:08:50;;;;;;;104.82;101.45;;;21.20;70.50;;;;;;5023833;28;20177;-87
2022/07/26 06:11:15;;;;;;;100.28;97.25;;;21.30;71.30;;;;;;5003097;28;20223;-87
2022/07/26 06:13:41;;;;;;;97.22;94.15;;;21.50;70.30;;;;;;4999652;28;20199;-87
2022/07/26 06:16:07;;;;;;;93.38;90.32;;;21.60;69.60;;;;;;5014855;28;20193;-87
2022/07/26 06:18:33;;;;;;;93.65;90.40;;;21.70;69.60;;;;;;5010202;28;20186;-87
2022/07/26 06:20:58;;;;;;;49.90;48.15;;;21.80;69.20;;;;;;5002078;28;20192;-87
2022/07/26 06:23:24;;;;;;;70.20;67.90;;;21.70;66.40;;;;;;5021628;28;20190;-87
2022/07/26 06:25:50;;;;;;;60.72;58.75;;;21.70;66.70;;;;;;5011294;28;20275;-87
2022/07/26 06:28:16;;;;;;;71.90;69.57;;;21.60;66.70;;;;;;5015398;28;20209;-88
2022/07/26 06:30:43;;;;;;;61.30;59.25;;;21.50;66.70;;;;;;4999114;28;20685;-88
2022/07/26 06:33:09;;;;;;;69.72;67.28;;;21.60;66.00;;;;;;5011284;28;20187;-87
2022/07/26 06:35:37;;;;;;;51.45;49.75;;;21.60;66.20;;;;;;5017036;28;20202;-86
2022/07/26 06:38:04;;;;;;;67.13;64.85;;;21.60;65.30;;;;;;5015625;28;20204;-87
2022/07/26 06:40:30;;;;;;;71.05;68.80;;;21.50;64.80;;;;;;5019810;28;20196;-87
2022/07/26 06:42:55;;;;;;;62.92;60.85;;;21.50;65.30;;;;;;4984405;28;20253;-87
2022/07/26 06:45:21;;;;;;;60.10;58.10;;;21.40;65.20;;;;;;5006887;28;20268;-88
2022/07/26 06:47:47;;;;;;;73.55;70.82;;;21.40;64.80;;;;;;5013727;28;20738;-88
2022/07/26 06:50:13;;;;;;;92.68;89.57;;;21.50;65.50;;;;;;5013329;28;20195;-88
2022/07/26 06:52:39;;;;;;;72.45;70.10;;;21.60;65.50;;;;;;5010284;28;20638;-87
2022/07/26 06:55:05;;;;;;;37.35;36.05;;;21.70;64.90;;;;;;5028558;28;20190;-87
2022/07/26 06:57:31;;;;;;;38.00;36.60;;;21.80;63.20;;;;;;5000513;28;20298;-87
2022/07/26 06:59:56;;;;;;;41.65;40.15;;;22.00;63.20;;;;;;5006476;28;20281;-88
2022/07/26 07:02:22;;;;;;;40.17;38.47;;;22.00;62.70;;;;;;4995624;28;20191;-87
2022/07/26 07:04:48;;;;;;;39.13;37.67;;;21.90;63.50;;;;;;5018017;28;20202;-87
2022/07/26 07:07:14;;;;;;;44.42;42.92;;;21.90;62.50;;;;;;5004820;28;20619;-87
2022/07/26 07:09:39;;;;;;;47.58;45.97;;;21.90;62.90;;;;;;5010978;28;20197;-88
2022/07/26 07:12:06;;;;;;;47.10;45.25;;;22.00;62.20;;;;;;5020443;28;20221;-88
2022/07/26 07:14:32;;;;;;;47.55;45.67;;;21.90;62.70;;;;;;5013857;28;20662;-87
2022/07/26 07:16:58;;;;;;;48.05;46.05;;;22.00;62.70;;;;;;5016991;28;20259;-87
2022/07/26 07:19:24;;;;;;;42.33;40.88;;;22.00;62.00;;;;;;5009665;28;20189;-88
2022/07/26 07:21:50;;;;;;;48.15;46.40;;;22.00;62.30;;;;;;5009875;28;20678;-88
2022/07/26 07:24:16;;;;;;;45.53;43.92;;;22.10;61.50;;;;;;5011560;28;20575;-87
2022/07/26 07:26:42;;;;;;;42.50;40.92;;;22.10;62.30;;;;;;4995522;28;20227;-88
2022/07/26 07:29:11;;;;;;;42.85;41.45;;;22.00;61.10;;;;;;5008174;28;20181;-88
2022/07/26 07:31:37;;;;;;;44.20;42.80;;;22.10;61.10;;;;;;5003754;28;20569;-87
2022/07/26 07:34:04;;;;;;;50.00;48.30;;;22.20;61.30;;;;;;4990942;28;20286;-87
2022/07/26 07:36:29;;;;;;;48.35;46.67;;;22.30;59.90;;;;;;5007589;28;20232;-87
2022/07/26 07:38:55;;;;;;;51.47;49.58;;;22.30;59.50;;;;;;5005510;28;20554;-87
2022/07/26 07:41:21;;;;;;;51.35;49.55;;;22.40;59.00;;;;;;4991594;28;20682;-86
2022/07/26 07:43:46;;;;;;;47.75;46.05;;;22.40;58.90;;;;;;4993671;28;20191;-85
2022/07/26 07:46:12;;;;;;;47.78;45.97;;;22.50;60.30;;;;;;4990199;28;20220;-87
2022/07/26 07:48:39;;;;;;;48.88;46.97;;;22.40;59.50;;;;;;5013361;28;20208;-86
2022/07/26 07:51:06;;;;;;;45.38;43.78;;;22.50;59.70;;;;;;5014013;28;20187;-89
2022/07/26 07:53:32;;;;;;;46.58;44.97;;;22.40;58.80;;;;;;5013875;28;20200;-86
2022/07/26 07:55:58;;;;;;;46.55;44.72;;;22.40;58.20;;;;;;4989259;28;20194;-88
2022/07/26 07:58:24;;;;;;;47.45;45.80;;;22.50;59.50;;;;;;5003932;28;20298;-87
2022/07/26 08:00:50;;;;;;;49.33;47.60;;;22.60;58.50;;;;;;5000141;28;20182;-88
2022/07/26 08:03:16;;;;;;;46.17;44.47;;;22.80;58.60;;;;;;4989355;28;20244;-87
2022/07/26 08:05:41;;;;;;;46.17;44.58;;;23.00;56.30;;;;;;5005117;28;20301;-87
2022/07/26 08:08:07;;;;;;;39.15;37.85;;;23.10;56.20;;;;;;4998541;28;20265;-84
2022/07/26 08:10:33;;;;;;;45.60;44.13;;;23.10;55.10;;;;;;4996017;28;20431;-86
2022/07/26 08:12:58;;;;;;;42.72;41.33;;;23.00;56.50;;;;;;5004293;28;20197;-87
2022/07/26 08:15:26;;;;;;;33.78;32.58;;;23.40;55.70;;;;;;5009240;28;20674;-86
2022/07/26 08:17:52;;;;;;;31.52;30.33;;;23.70;54.20;;;;;;5002283;28;20213;-86
2022/07/26 08:20:18;;;;;;;29.60;28.60;;;23.60;53.60;;;;;;4986192;28;20194;-85
2022/07/26 08:22:43;;;;;;;34.75;33.63;;;23.50;52.90;;;;;;4982806;28;20190;-87
2022/07/26 08:25:09;;;;;;;42.42;40.95;;;23.40;54.50;;;;;;4996595;28;20220;-87
2022/07/26 08:27:35;;;;;;;30.65;29.55;;;23.50;55.20;;;;;;5000918;28;20320;-87
2022/07/26 08:30:01;;;;;;;29.13;28.02;;;23.70;53.00;;;;;;5007679;28;20198;-87
2022/07/26 08:32:26;;;;;;;31.25;29.90;;;23.60;52.90;;;;;;5003834;28;20208;-87
2022/07/26 08:34:52;;;;;;;30.80;29.67;;;23.90;52.80;;;;;;5004533;28;20178;-87
2022/07/26 08:37:18;;;;;;;31.15;30.08;;;23.80;51.90;;;;;;5008688;28;20224;-87
2022/07/26 08:39:45;;;;;;;27.08;25.95;;;23.70;53.20;;;;;;5003100;28;20231;-87
2022/07/26 08:42:15;;;;;;;27.90;26.70;;;23.70;50.90;;;;;;5005940;28;20236;-87
2022/07/26 08:44:43;;;;;;;34.10;32.92;;;23.90;51.70;;;;;;5003422;28;20664;-87
2022/07/26 08:47:13;;;;;;;28.10;26.95;;;24.10;50.80;;;;;;5008835;28;20620;-87
2022/07/26 08:49:39;;;;;;;31.65;30.52;;;23.90;50.20;;;;;;4999985;28;20182;-86
2022/07/26 08:52:06;;;;;;;31.48;30.42;;;24.00;51.00;;;;;;5004015;28;20213;-86
2022/07/26 08:54:32;;;;;;;28.45;27.30;;;24.20;50.70;;;;;;5036749;28;20271;-87
2022/07/26 08:56:58;;;;;;;27.95;26.95;;;24.50;48.80;;;;;;5032028;28;20214;-87
2022/07/26 08:59:24;;;;;;;29.25;28.15;;;24.40;49.60;;;;;;5010381;28;20802;-87
2022/07/26 09:01:54;;;;;;;25.67;24.77;;;24.50;49.20;;;;;;4992754;28;20665;-87
2022/07/26 09:04:28;;;;;;;25.33;24.33;;;24.70;47.80;;;;;;5005048;28;20221;-86
2022/07/26 09:07:09;;;;;;;25.67;24.77;;;24.90;47.70;;;;;;5008620;28;20220;-86
2022/07/26 09:09:38;;;;;;;25.33;24.50;;;24.70;46.60;;;;;;4992094;28;20186;-87
2022/07/26 09:12:18;;;;;;;26.30;25.40;;;24.80;46.70;;;;;;5007053;28;20223;-86
2022/07/26 09:14:45;;;;;;;27.20;26.30;;;24.80;47.20;;;;;;5005400;28;20183;-85
2022/07/26 09:17:12;;;;;;;26.50;25.48;;;25.20;46.70;;;;;;5009924;28;20202;-86
2022/07/26 09:19:38;;;;;;;27.15;26.25;;;25.20;46.40;;;;;;5011614;28;20204;-87
2022/07/26 09:22:09;;;;;;;25.40;24.50;;;25.20;44.70;;;;;;5003807;28;20178;-86
2022/07/26 09:24:44;;;;;;;25.30;24.48;;;24.90;45.70;;;;;;5008675;28;20182;-86
2022/07/26 09:27:12;;;;;;;26.98;25.63;;;24.90;46.50;;;;;;5012719;28;20213;-87
2022/07/26 09:29:45;;;;;;;25.52;24.42;;;25.30;44.70;;;;;;5016914;28;20196;-87
2022/07/26 09:32:17;;;;;;;26.65;25.55;;;25.60;43.80;;;;;;5012401;28;20287;-87
2022/07/26 09:34:50;;;;;;;28.60;27.35;;;26.00;44.50;;;;;;5013116;28;20173;-86
2022/07/26 09:37:16;;;;;;;37.40;36.20;;;26.20;43.20;;;;;;5003527;28;20247;-87
2022/07/26 09:40:00;;;;;;;35.25;34.00;;;26.20;42.00;;;;;;5005053;28;20183;-86
2022/07/26 09:42:26;;;;;;;31.70;30.60;;;26.10;42.20;;;;;;5011900;28;20661;-86
2022/07/26 09:44:53;;;;;;;35.33;34.13;;;26.00;42.10;;;;;;5017359;28;20184;-87
2022/07/26 09:47:19;;;;;;;33.67;32.58;;;26.30;41.80;;;;;;5013916;28;20213;-86
2022/07/26 09:49:45;;;;;;;41.13;39.63;;;26.20;41.20;;;;;;5002598;28;20288;-86
2022/07/26 09:52:20;;;;;;;24.75;23.75;;;26.30;40.70;;;;;;5011658;28;20209;-87
2022/07/26 09:54:48;;;;;;;28.08;26.98;;;25.80;43.20;;;;;;5015613;28;20676;-87
2022/07/26 09:57:20;;;;;;;37.22;36.03;;;26.00;42.30;;;;;;5009890;28;20256;-86
2022/07/26 09:59:46;;;;;;;47.92;46.42;;;26.50;41.50;;;;;;5008192;28;20173;-86
2022/07/26 10:02:13;;;;;;;49.38;47.67;;;26.60;39.10;;;;;;5018555;28;20505;-87
2022/07/26 10:04:41;;;;;;;45.63;44.03;;;26.50;38.40;;;;;;5005600;28;20197;-88
2022/07/26 10:07:11;;;;;;;51.03;49.33;;;26.60;38.10;;;;;;5014407;28;20202;-87
2022/07/26 10:09:47;;;;;;;52.10;50.30;;;27.00;39.20;;;;;;5023908;28;20204;-87
2022/07/26 10:12:16;;;;;;;49.08;47.53;;;27.40;39.00;;;;;;5012069;28;20189;-87
2022/07/26 10:14:48;;;;;;;50.92;49.22;;;27.00;38.60;;;;;;5023023;28;20177;-85
2022/07/26 10:17:26;;;;;;;49.65;47.90;;;27.00;39.90;;;;;;5000557;28;20210;-87
2022/07/26 10:19:55;;;;;;;43.42;41.92;;;27.30;38.50;;;;;;5008733;28;20182;-85
2022/07/26 10:22:25;;;;;;;40.53;39.22;;;27.40;37.50;;;;;;5012212;28;20181;-86
2022/07/26 10:24:53;;;;;;;37.30;36.00;;;27.70;37.20;;;;;;5011065;28;20182;-86
2022/07/26 10:27:41;;;;;;;43.00;41.50;;;27.90;37.10;;;;;;4988729;28;20616;-87
2022/07/26 10:30:19;;;;;;;28.95;28.02;;;27.90;37.00;;;;;;5006343;28;20627;-86
2022/07/26 10:32:53;;;;;;;22.90;22.10;;;28.20;37.10;;;;;;4998020;28;20286;-86
2022/07/26 10:35:39;;;;;;;20.10;19.40;;;28.20;36.20;;;;;;5005944;28;20191;-86
2022/07/26 10:38:08;;;;;;;31.02;29.90;;;27.80;36.10;;;;;;5003639;28;20672;-86
2022/07/26 10:40:36;;;;;;;25.08;24.27;;;27.80;36.30;;;;;;5005455;28;20192;-86
2022/07/26 10:43:06;;;;;;;39.97;38.67;;;27.90;35.70;;;;;;5009826;28;20200;-86
2022/07/26 10:45:32;;;;;;;37.55;36.22;;;27.80;37.00;;;;;;5004647;28;20224;-87
2022/07/26 10:48:13;;;;;;;37.08;35.88;;;27.80;36.10;;;;;;5006096;28;20210;-85
2022/07/26 10:50:42;;;;;;;23.52;21.48;;;28.30;36.50;;;;;;5009733;28;20276;-86
2022/07/26 10:53:10;;;;;;;28.00;26.90;;;28.30;35.10;;;;;;5016193;28;20197;-87
2022/07/26 10:55:56;;;;;;;27.95;27.05;;;28.10;36.00;;;;;;5001870;28;20213;-87
2022/07/26 10:58:23;;;;;;;22.48;21.67;;;28.00;36.30;;;;;;4984836;28;20202;-88
2022/07/26 11:01:00;;;;;;;22.17;21.38;;;28.40;35.20;;;;;;5003567;28;20189;-88
2022/07/26 11:03:40;;;;;;;22.77;21.98;;;28.50;35.30;;;;;;5008035;28;20177;-87
2022/07/26 11:06:15;;;;;;;20.48;19.75;;;28.40;35.40;;;;;;4986776;28;20206;-87
2022/07/26 11:08:42;;;;;;;24.17;23.30;;;28.60;34.90;;;;;;5008737;28;20173;-87
2022/07/26 11:11:08;;;;;;;22.77;22.05;;;28.50;35.60;;;;;;5009601;28;20189;-87
2022/07/26 11:13:35;;;;;;;25.88;24.80;;;28.60;35.00;;;;;;5007008;28;20200;-86
2022/07/26 11:16:03;;;;;;;19.23;18.52;;;28.80;35.50;;;;;;5005172;28;20206;-86
2022/07/26 11:18:34;;;;;;;20.90;20.17;;;28.80;33.60;;;;;;4996834;28;20212;-88
2022/07/26 11:21:17;;;;;;;37.00;35.80;;;29.10;35.00;;;;;;5006971;28;20175;-88
2022/07/26 11:23:44;;;;;;;46.15;44.40;;;30.00;33.20;;;;;;5003254;28;20188;-86
2022/07/26 11:26:14;;;;;;;41.30;39.88;;;30.40;32.20;;;;;;5006673;28;20296;-87
2022/07/26 11:28:47;;;;;;;39.25;37.83;;;30.20;32.30;;;;;;5010358;28;20201;-86
2022/07/26 11:31:13;;;;;;;41.65;40.25;;;29.90;32.40;;;;;;4995435;28;20193;-87
2022/07/26 11:33:41;;;;;;;42.88;41.47;;;29.80;32.80;;;;;;5003662;28;20178;-87
2022/07/26 11:36:07;;;;;;;43.08;41.67;;;29.80;33.40;;;;;;4988200;28;20182;-87
2022/07/26 11:38:52;;;;;;;42.92;41.42;;;29.60;33.20;;;;;;5008724;28;20205;-84
2022/07/26 11:41:23;;;;;;;42.03;40.53;;;29.60;32.90;;;;;;5010188;28;20247;-87
2022/07/26 11:43:51;;;;;;;38.45;37.00;;;30.00;32.70;;;;;;5002406;28;20265;-86
2022/07/26 11:46:17;;;;;;;36.28;34.90;;;30.30;31.80;;;;;;5023659;28;20202;-86
2022/07/26 11:48:51;;;;;;;27.90;26.65;;;29.60;33.40;;;;;;5007195;28;20197;-87
2022/07/26 11:51:20;;;;;;;39.70;38.40;;;29.10;34.40;;;;;;5013368;28;20588;-86
2022/07/26 11:53:47;;;;;;;43.17;41.72;;;29.90;32.80;;;;;;5009159;28;20189;-86
2022/07/26 11:56:15;;;;;;;41.72;40.33;;;29.90;32.00;;;;;;5011753;28;20177;-86
2022/07/26 11:58:43;;;;;;;39.22;37.92;;;29.70;32.00;;;;;;5008046;28;20213;-86
2022/07/26 12:01:10;;;;;;;39.78;38.53;;;29.80;32.90;;;;;;5000191;28;20209;-86
2022/07/26 12:03:41;;;;;;;28.70;27.77;;;30.70;31.40;;;;;;4987821;28;20193;-86
2022/07/26 12:06:16;;;;;;;25.55;24.55;;;30.70;30.80;;;;;;4988259;28;20224;-86
2022/07/26 12:08:51;;;;;;;20.85;20.15;;;30.70;30.90;;;;;;5007509;28;20211;-86
2022/07/26 12:11:18;;;;;;;19.77;19.08;;;31.10;29.80;;;;;;5006094;28;20176;-86
2022/07/26 12:14:00;;;;;;;20.08;19.25;;;31.20;29.60;;;;;;5012285;28;20915;-86
2022/07/26 12:16:36;;;;;;;19.83;18.90;;;31.30;30.10;;;;;;5004918;28;20209;-87
2022/07/26 12:19:06;;;;;;;20.45;19.65;;;31.30;29.60;;;;;;4991088;28;20197;-86
2022/07/26 12:21:46;;;;;;;19.70;19.10;;;31.00;30.10;;;;;;4987857;28;20700;-87
2022/07/26 12:24:34;;;;;;;22.08;21.27;;;30.80;29.50;;;;;;5000168;28;20185;-87
2022/07/26 12:27:10;;;;;;;22.17;21.38;;;30.90;29.70;;;;;;5003822;28;20306;-87
2022/07/26 12:29:37;;;;;;;20.55;19.67;;;31.00;30.10;;;;;;5008701;28;20188;-87